sensor_id;sensor_type;location;lat;lon;timestamp;temperature;humidity
70826;SHT31;58446;41.490;22.098;2024-02-14T00:02:11;10.72;62.34
70826;SHT31;58446;41.490;22.098;2024-02-14T00:04:37;10.67;62.65
70826;SHT31;58446;41.490;22.098;2024-02-14T00:07:04;10.63;62.72
70826;SHT31;58446;41.490;22.098;2024-02-14T00:09:30;10.61;62.83
70826;SHT31;58446;41.490;22.098;2024-02-14T00:11:56;10.60;62.98
70826;SHT31;58446;41.490;22.098;2024-02-14T00:14:21;10.60;62.89
70826;SHT31;58446;41.490;22.098;2024-02-14T00:16:47;10.60;63.04
70826;SHT31;58446;41.490;22.098;2024-02-14T00:19:13;10.60;63.11
70826;SHT31;58446;41.490;22.098;2024-02-14T00:21:39;10.61;63.18
70826;SHT31;58446;41.490;22.098;2024-02-14T00:24:05;10.63;63.12
70826;SHT31;58446;41.490;22.098;2024-02-14T00:26:31;10.60;63.25
70826;SHT31;58446;41.490;22.098;2024-02-14T00:28:57;10.50;63.04
70826;SHT31;58446;41.490;22.098;2024-02-14T00:31:22;10.53;63.31
70826;SHT31;58446;41.490;22.098;2024-02-14T00:33:48;10.63;63.14
70826;SHT31;58446;41.490;22.098;2024-02-14T00:36:14;10.60;63.13
70826;SHT31;58446;41.490;22.098;2024-02-14T00:38:40;10.60;63.21
70826;SHT31;58446;41.490;22.098;2024-02-14T00:41:05;10.53;62.82
70826;SHT31;58446;41.490;22.098;2024-02-14T00:43:31;10.48;63.39
70826;SHT31;58446;41.490;22.098;2024-02-14T00:45:57;10.51;63.03
70826;SHT31;58446;41.490;22.098;2024-02-14T00:48:23;10.50;63.16
70826;SHT31;58446;41.490;22.098;2024-02-14T00:50:48;10.47;63.35
70826;SHT31;58446;41.490;22.098;2024-02-14T00:53:14;10.43;63.47
70826;SHT31;58446;41.490;22.098;2024-02-14T00:55:40;10.37;63.26
70826;SHT31;58446;41.490;22.098;2024-02-14T00:58:06;10.41;63.47
70826;SHT31;58446;41.490;22.098;2024-02-14T01:00:31;10.47;63.44
70826;SHT31;58446;41.490;22.098;2024-02-14T01:02:58;10.43;63.49
70826;SHT31;58446;41.490;22.098;2024-02-14T01:05:24;10.40;63.37
70826;SHT31;58446;41.490;22.098;2024-02-14T01:07:50;10.44;63.56
70826;SHT31;58446;41.490;22.098;2024-02-14T01:10:16;10.47;63.49
70826;SHT31;58446;41.490;22.098;2024-02-14T01:12:43;10.46;63.54
70826;SHT31;58446;41.490;22.098;2024-02-14T01:15:09;10.41;63.48
70826;SHT31;58446;41.490;22.098;2024-02-14T01:17:35;10.43;63.56
70826;SHT31;58446;41.490;22.098;2024-02-14T01:20:04;10.36;63.75
70826;SHT31;58446;41.490;22.098;2024-02-14T01:22:30;10.32;63.98
70826;SHT31;58446;41.490;22.098;2024-02-14T01:24:56;10.37;63.77
70826;SHT31;58446;41.490;22.098;2024-02-14T01:27:23;10.40;63.69
70826;SHT31;58446;41.490;22.098;2024-02-14T01:29:49;10.47;63.69
70826;SHT31;58446;41.490;22.098;2024-02-14T01:32:15;10.46;63.62
70826;SHT31;58446;41.490;22.098;2024-02-14T01:34:40;10.41;63.68
70826;SHT31;58446;41.490;22.098;2024-02-14T01:37:08;10.37;63.60
70826;SHT31;58446;41.490;22.098;2024-02-14T01:39:35;10.34;63.94
70826;SHT31;58446;41.490;22.098;2024-02-14T01:42:01;10.40;63.85
70826;SHT31;58446;41.490;22.098;2024-02-14T01:44:32;10.38;63.80
70826;SHT31;58446;41.490;22.098;2024-02-14T01:46:57;10.41;63.88
70826;SHT31;58446;41.490;22.098;2024-02-14T01:49:24;10.36;63.74
70826;SHT31;58446;41.490;22.098;2024-02-14T01:51:55;10.34;63.73
70826;SHT31;58446;41.490;22.098;2024-02-14T01:54:24;10.38;63.71
70826;SHT31;58446;41.490;22.098;2024-02-14T01:56:50;10.41;63.60
70826;SHT31;58446;41.490;22.098;2024-02-14T01:59:15;10.36;63.58
70826;SHT31;58446;41.490;22.098;2024-02-14T02:01:42;10.33;63.78
70826;SHT31;58446;41.490;22.098;2024-02-14T02:04:08;10.36;63.77
70826;SHT31;58446;41.490;22.098;2024-02-14T02:06:33;10.32;63.58
70826;SHT31;58446;41.490;22.098;2024-02-14T02:09:00;10.26;63.76
70826;SHT31;58446;41.490;22.098;2024-02-14T02:11:25;10.26;63.36
70826;SHT31;58446;41.490;22.098;2024-02-14T02:13:52;10.29;63.76
70826;SHT31;58446;41.490;22.098;2024-02-14T02:16:17;10.32;63.76
70826;SHT31;58446;41.490;22.098;2024-02-14T02:18:45;10.27;63.84
70826;SHT31;58446;41.490;22.098;2024-02-14T02:21:11;10.21;64.21
70826;SHT31;58446;41.490;22.098;2024-02-14T02:23:38;10.23;64.00
70826;SHT31;58446;41.490;22.098;2024-02-14T02:26:06;10.20;64.15
70826;SHT31;58446;41.490;22.098;2024-02-14T02:28:31;10.27;64.07
70826;SHT31;58446;41.490;22.098;2024-02-14T02:30:57;10.21;64.19
70826;SHT31;58446;41.490;22.098;2024-02-14T02:33:23;10.29;64.16
70826;SHT31;58446;41.490;22.098;2024-02-14T02:35:49;10.27;64.02
70826;SHT31;58446;41.490;22.098;2024-02-14T02:38:16;10.30;64.13
70826;SHT31;58446;41.490;22.098;2024-02-14T02:40:43;10.27;64.23
70826;SHT31;58446;41.490;22.098;2024-02-14T02:43:09;10.33;64.18
70826;SHT31;58446;41.490;22.098;2024-02-14T02:45:36;10.29;64.23
70826;SHT31;58446;41.490;22.098;2024-02-14T02:48:01;10.23;64.29
70826;SHT31;58446;41.490;22.098;2024-02-14T02:50:27;10.27;64.40
70826;SHT31;58446;41.490;22.098;2024-02-14T02:52:54;10.27;64.39
70826;SHT31;58446;41.490;22.098;2024-02-14T02:55:23;10.27;64.45
70826;SHT31;58446;41.490;22.098;2024-02-14T02:57:48;10.18;64.61
70826;SHT31;58446;41.490;22.098;2024-02-14T03:00:15;10.23;64.76
70826;SHT31;58446;41.490;22.098;2024-02-14T03:02:41;10.18;64.80
70826;SHT31;58446;41.490;22.098;2024-02-14T03:05:10;10.16;64.82
70826;SHT31;58446;41.490;22.098;2024-02-14T03:07:43;10.17;64.94
70826;SHT31;58446;41.490;22.098;2024-02-14T03:10:11;10.14;65.15
70826;SHT31;58446;41.490;22.098;2024-02-14T03:12:39;10.09;65.23
70826;SHT31;58446;41.490;22.098;2024-02-14T03:15:05;10.02;65.50
70826;SHT31;58446;41.490;22.098;2024-02-14T03:17:31;10.03;65.42
70826;SHT31;58446;41.490;22.098;2024-02-14T03:19:57;10.07;65.53
70826;SHT31;58446;41.490;22.098;2024-02-14T03:22:23;10.05;65.42
70826;SHT31;58446;41.490;22.098;2024-02-14T03:24:48;10.10;65.48
70826;SHT31;58446;41.490;22.098;2024-02-14T03:27:14;10.06;65.51
70826;SHT31;58446;41.490;22.098;2024-02-14T03:29:42;10.02;65.64
70826;SHT31;58446;41.490;22.098;2024-02-14T03:32:09;10.03;65.69
70826;SHT31;58446;41.490;22.098;2024-02-14T03:34:35;9.95;65.82
70826;SHT31;58446;41.490;22.098;2024-02-14T03:37:03;9.93;65.92
70826;SHT31;58446;41.490;22.098;2024-02-14T03:39:30;9.95;65.91
70826;SHT31;58446;41.490;22.098;2024-02-14T03:41:57;10.06;65.60
70826;SHT31;58446;41.490;22.098;2024-02-14T03:44:24;10.00;65.53
70826;SHT31;58446;41.490;22.098;2024-02-14T03:46:49;10.03;65.52
70826;SHT31;58446;41.490;22.098;2024-02-14T03:49:15;9.96;65.57
70826;SHT31;58446;41.490;22.098;2024-02-14T03:51:41;9.99;65.47
70826;SHT31;58446;41.490;22.098;2024-02-14T03:54:06;9.93;65.70
70826;SHT31;58446;41.490;22.098;2024-02-14T03:56:32;9.90;65.66
70826;SHT31;58446;41.490;22.098;2024-02-14T03:59:01;9.93;65.74
70826;SHT31;58446;41.490;22.098;2024-02-14T04:01:28;9.83;66.20
70826;SHT31;58446;41.490;22.098;2024-02-14T04:03:54;9.87;66.27
70826;SHT31;58446;41.490;22.098;2024-02-14T04:06:20;9.86;66.15
70826;SHT31;58446;41.490;22.098;2024-02-14T04:08:46;9.81;66.53
70826;SHT31;58446;41.490;22.098;2024-02-14T04:11:11;9.81;66.74
70826;SHT31;58446;41.490;22.098;2024-02-14T04:13:39;9.85;66.56
70826;SHT31;58446;41.490;22.098;2024-02-14T04:16:05;9.83;66.58
70826;SHT31;58446;41.490;22.098;2024-02-14T04:18:30;9.83;66.53
70826;SHT31;58446;41.490;22.098;2024-02-14T04:20:56;9.78;66.78
70826;SHT31;58446;41.490;22.098;2024-02-14T04:23:22;9.79;66.80
70826;SHT31;58446;41.490;22.098;2024-02-14T04:25:48;9.81;66.68
70826;SHT31;58446;41.490;22.098;2024-02-14T04:28:13;9.76;66.88
70826;SHT31;58446;41.490;22.098;2024-02-14T04:30:39;9.76;66.94
70826;SHT31;58446;41.490;22.098;2024-02-14T04:33:07;9.74;67.02
70826;SHT31;58446;41.490;22.098;2024-02-14T04:35:33;9.69;67.08
70826;SHT31;58446;41.490;22.098;2024-02-14T04:37:59;9.72;67.05
70826;SHT31;58446;41.490;22.098;2024-02-14T04:40:25;9.72;67.01
70826;SHT31;58446;41.490;22.098;2024-02-14T04:42:50;9.69;67.26
70826;SHT31;58446;41.490;22.098;2024-02-14T04:45:16;9.71;67.21
70826;SHT31;58446;41.490;22.098;2024-02-14T04:47:42;9.75;67.10
70826;SHT31;58446;41.490;22.098;2024-02-14T04:50:09;9.75;67.08
70826;SHT31;58446;41.490;22.098;2024-02-14T04:52:34;9.69;67.14
70826;SHT31;58446;41.490;22.098;2024-02-14T04:55:00;9.68;67.26
70826;SHT31;58446;41.490;22.098;2024-02-14T04:57:26;9.74;67.19
70826;SHT31;58446;41.490;22.098;2024-02-14T04:59:51;9.65;66.77
70826;SHT31;58446;41.490;22.098;2024-02-14T05:02:17;9.69;67.23
70826;SHT31;58446;41.490;22.098;2024-02-14T05:04:43;9.72;66.97
70826;SHT31;58446;41.490;22.098;2024-02-14T05:07:09;9.72;66.78
70826;SHT31;58446;41.490;22.098;2024-02-14T05:09:34;9.74;66.93
70826;SHT31;58446;41.490;22.098;2024-02-14T05:12:00;9.62;66.89
70826;SHT31;58446;41.490;22.098;2024-02-14T05:14:26;9.69;66.93
70826;SHT31;58446;41.490;22.098;2024-02-14T05:16:56;9.65;67.15
70826;SHT31;58446;41.490;22.098;2024-02-14T05:19:22;9.58;67.28
70826;SHT31;58446;41.490;22.098;2024-02-14T05:21:47;9.61;67.28
70826;SHT31;58446;41.490;22.098;2024-02-14T05:24:13;9.59;67.17
70826;SHT31;58446;41.490;22.098;2024-02-14T05:26:39;9.52;67.27
70826;SHT31;58446;41.490;22.098;2024-02-14T05:29:04;9.52;67.20
70826;SHT31;58446;41.490;22.098;2024-02-14T05:31:43;9.58;67.36
70826;SHT31;58446;41.490;22.098;2024-02-14T05:34:09;9.56;67.26
70826;SHT31;58446;41.490;22.098;2024-02-14T05:36:35;9.58;67.09
70826;SHT31;58446;41.490;22.098;2024-02-14T05:39:02;9.55;67.10
70826;SHT31;58446;41.490;22.098;2024-02-14T05:41:28;9.49;67.24
70826;SHT31;58446;41.490;22.098;2024-02-14T05:43:53;9.52;67.26
70826;SHT31;58446;41.490;22.098;2024-02-14T05:46:19;9.48;67.25
70826;SHT31;58446;41.490;22.098;2024-02-14T05:48:46;9.41;67.33
70826;SHT31;58446;41.490;22.098;2024-02-14T05:51:13;9.46;67.45
70826;SHT31;58446;41.490;22.098;2024-02-14T05:53:39;9.44;67.48
70826;SHT31;58446;41.490;22.098;2024-02-14T05:56:05;9.42;67.39
70826;SHT31;58446;41.490;22.098;2024-02-14T05:58:31;9.46;67.41
70826;SHT31;58446;41.490;22.098;2024-02-14T06:00:57;9.48;67.41
70826;SHT31;58446;41.490;22.098;2024-02-14T06:03:23;9.45;67.00
70826;SHT31;58446;41.490;22.098;2024-02-14T06:05:48;9.54;66.80
70826;SHT31;58446;41.490;22.098;2024-02-14T06:08:14;9.74;66.28
70826;SHT31;58446;41.490;22.098;2024-02-14T06:10:40;9.99;65.34
70826;SHT31;58446;41.490;22.098;2024-02-14T06:13:05;10.48;63.96
70826;SHT31;58446;41.490;22.098;2024-02-14T06:15:31;10.88;62.93
70826;SHT31;58446;41.490;22.098;2024-02-14T06:17:57;11.15;61.77
70826;SHT31;58446;41.490;22.098;2024-02-14T06:20:23;11.52;60.67
70826;SHT31;58446;41.490;22.098;2024-02-14T06:22:48;11.86;59.68
70826;SHT31;58446;41.490;22.098;2024-02-14T06:25:14;12.13;58.65
70826;SHT31;58446;41.490;22.098;2024-02-14T06:27:41;12.01;59.07
70826;SHT31;58446;41.490;22.098;2024-02-14T06:30:08;11.76;59.64
70826;SHT31;58446;41.490;22.098;2024-02-14T06:32:34;11.91;59.18
70826;SHT31;58446;41.490;22.098;2024-02-14T06:34:59;12.17;58.21
70826;SHT31;58446;41.490;22.098;2024-02-14T06:37:25;12.69;56.89
70826;SHT31;58446;41.490;22.098;2024-02-14T06:39:50;13.47;54.69
70826;SHT31;58446;41.490;22.098;2024-02-14T06:42:17;14.16;52.27
70826;SHT31;58446;41.490;22.098;2024-02-14T06:44:43;12.90;55.02
70826;SHT31;58446;41.490;22.098;2024-02-14T06:47:08;12.02;57.67
70826;SHT31;58446;41.490;22.098;2024-02-14T06:49:36;11.47;58.59
70826;SHT31;58446;41.490;22.098;2024-02-14T06:52:02;11.20;60.11
70826;SHT31;58446;41.490;22.098;2024-02-14T06:54:27;10.94;60.64
70826;SHT31;58446;41.490;22.098;2024-02-14T06:56:53;10.74;60.87
70826;SHT31;58446;41.490;22.098;2024-02-14T06:59:20;10.71;61.26
70826;SHT31;58446;41.490;22.098;2024-02-14T07:01:45;10.61;60.65
70826;SHT31;58446;41.490;22.098;2024-02-14T07:04:11;10.51;61.28
70826;SHT31;58446;41.490;22.098;2024-02-14T07:06:37;10.50;61.32
70826;SHT31;58446;41.490;22.098;2024-02-14T07:09:02;10.48;61.52
70826;SHT31;58446;41.490;22.098;2024-02-14T07:11:28;10.47;61.61
70826;SHT31;58446;41.490;22.098;2024-02-14T07:13:54;10.50;60.94
70826;SHT31;58446;41.490;22.098;2024-02-14T07:16:20;10.50;60.78
70826;SHT31;58446;41.490;22.098;2024-02-14T07:18:46;10.50;60.97
70826;SHT31;58446;41.490;22.098;2024-02-14T07:21:11;10.48;60.71
70826;SHT31;58446;41.490;22.098;2024-02-14T07:23:37;10.48;60.54
70826;SHT31;58446;41.490;22.098;2024-02-14T07:26:03;10.48;60.58
70826;SHT31;58446;41.490;22.098;2024-02-14T07:28:28;10.41;59.90
70826;SHT31;58446;41.490;22.098;2024-02-14T07:30:54;10.37;60.02
70826;SHT31;58446;41.490;22.098;2024-02-14T07:33:20;10.32;59.61
70826;SHT31;58446;41.490;22.098;2024-02-14T07:35:46;10.29;59.00
70826;SHT31;58446;41.490;22.098;2024-02-14T07:38:13;10.27;59.13
70826;SHT31;58446;41.490;22.098;2024-02-14T07:40:38;10.20;58.93
70826;SHT31;58446;41.490;22.098;2024-02-14T07:43:05;10.23;58.69
70826;SHT31;58446;41.490;22.098;2024-02-14T07:45:32;10.27;58.39
70826;SHT31;58446;41.490;22.098;2024-02-14T07:47:58;10.21;58.11
70826;SHT31;58446;41.490;22.098;2024-02-14T07:50:24;10.18;57.46
70826;SHT31;58446;41.490;22.098;2024-02-14T07:52:50;10.32;57.66
70826;SHT31;58446;41.490;22.098;2024-02-14T07:55:15;10.32;57.62
70826;SHT31;58446;41.490;22.098;2024-02-14T07:57:41;10.33;57.25
70826;SHT31;58446;41.490;22.098;2024-02-14T08:00:08;10.44;56.83
70826;SHT31;58446;41.490;22.098;2024-02-14T08:02:34;10.47;56.98
70826;SHT31;58446;41.490;22.098;2024-02-14T08:05:01;10.57;56.64
70826;SHT31;58446;41.490;22.098;2024-02-14T08:07:26;10.67;56.31
70826;SHT31;58446;41.490;22.098;2024-02-14T08:09:52;10.69;56.46
70826;SHT31;58446;41.490;22.098;2024-02-14T08:12:18;10.71;55.84
70826;SHT31;58446;41.490;22.098;2024-02-14T08:14:44;10.77;56.30
70826;SHT31;58446;41.490;22.098;2024-02-14T08:17:10;10.69;56.19
70826;SHT31;58446;41.490;22.098;2024-02-14T08:19:35;10.61;56.44
70826;SHT31;58446;41.490;22.098;2024-02-14T08:22:01;10.60;56.64
70826;SHT31;58446;41.490;22.098;2024-02-14T08:24:28;10.57;56.34
70826;SHT31;58446;41.490;22.098;2024-02-14T08:26:54;10.64;55.81
70826;SHT31;58446;41.490;22.098;2024-02-14T08:29:20;10.74;55.77
70826;SHT31;58446;41.490;22.098;2024-02-14T08:31:46;10.81;55.51
70826;SHT31;58446;41.490;22.098;2024-02-14T08:34:12;10.89;55.41
70826;SHT31;58446;41.490;22.098;2024-02-14T08:36:37;11.12;54.01
70826;SHT31;58446;41.490;22.098;2024-02-14T08:39:07;10.79;54.15
70826;SHT31;58446;41.490;22.098;2024-02-14T08:41:33;10.78;54.28
70826;SHT31;58446;41.490;22.098;2024-02-14T08:43:59;11.23;53.46
70826;SHT31;58446;41.490;22.098;2024-02-14T08:46:24;11.52;52.83
70826;SHT31;58446;41.490;22.098;2024-02-14T08:48:51;11.67;52.63
70826;SHT31;58446;41.490;22.098;2024-02-14T08:51:20;11.70;52.98
70826;SHT31;58446;41.490;22.098;2024-02-14T08:53:46;11.56;52.84
70826;SHT31;58446;41.490;22.098;2024-02-14T08:56:12;11.30;53.24
70826;SHT31;58446;41.490;22.098;2024-02-14T08:58:38;11.01;53.65
70826;SHT31;58446;41.490;22.098;2024-02-14T09:01:04;10.88;53.86
70826;SHT31;58446;41.490;22.098;2024-02-14T09:03:29;10.96;53.76
70826;SHT31;58446;41.490;22.098;2024-02-14T09:05:57;11.04;53.40
70826;SHT31;58446;41.490;22.098;2024-02-14T09:08:23;10.98;53.39
70826;SHT31;58446;41.490;22.098;2024-02-14T09:10:50;11.02;53.46
70826;SHT31;58446;41.490;22.098;2024-02-14T09:13:16;10.89;53.58
70826;SHT31;58446;41.490;22.098;2024-02-14T09:15:42;10.91;53.30
70826;SHT31;58446;41.490;22.098;2024-02-14T09:18:09;10.92;53.45
70826;SHT31;58446;41.490;22.098;2024-02-14T09:20:35;10.82;53.35
70826;SHT31;58446;41.490;22.098;2024-02-14T09:23:00;10.81;53.49
70826;SHT31;58446;41.490;22.098;2024-02-14T09:25:26;10.91;53.14
70826;SHT31;58446;41.490;22.098;2024-02-14T09:27:52;10.95;52.88
70826;SHT31;58446;41.490;22.098;2024-02-14T09:30:18;10.87;52.91
70826;SHT31;58446;41.490;22.098;2024-02-14T09:32:44;10.89;52.84
70826;SHT31;58446;41.490;22.098;2024-02-14T09:35:10;10.95;52.45
70826;SHT31;58446;41.490;22.098;2024-02-14T09:37:36;11.01;52.32
70826;SHT31;58446;41.490;22.098;2024-02-14T09:40:09;10.95;52.62
70826;SHT31;58446;41.490;22.098;2024-02-14T09:42:44;11.11;52.02
70826;SHT31;58446;41.490;22.098;2024-02-14T09:45:14;11.01;51.73
70826;SHT31;58446;41.490;22.098;2024-02-14T09:47:40;11.05;51.79
70826;SHT31;58446;41.490;22.098;2024-02-14T09:50:07;11.15;51.57
70826;SHT31;58446;41.490;22.098;2024-02-14T09:52:33;11.20;51.38
70826;SHT31;58446;41.490;22.098;2024-02-14T09:54:59;11.32;51.70
70826;SHT31;58446;41.490;22.098;2024-02-14T09:57:29;11.29;51.51
70826;SHT31;58446;41.490;22.098;2024-02-14T09:59:56;11.40;51.40
70826;SHT31;58446;41.490;22.098;2024-02-14T10:02:22;11.50;51.14
70826;SHT31;58446;41.490;22.098;2024-02-14T10:04:47;11.23;51.34
70826;SHT31;58446;41.490;22.098;2024-02-14T10:07:13;11.37;51.13
70826;SHT31;58446;41.490;22.098;2024-02-14T10:09:42;11.36;51.44
70826;SHT31;58446;41.490;22.098;2024-02-14T10:12:09;11.37;51.31
70826;SHT31;58446;41.490;22.098;2024-02-14T10:14:36;11.47;51.13
70826;SHT31;58446;41.490;22.098;2024-02-14T10:17:06;11.49;51.07
70826;SHT31;58446;41.490;22.098;2024-02-14T10:19:33;11.40;50.73
70826;SHT31;58446;41.490;22.098;2024-02-14T10:22:00;11.29;51.02
70826;SHT31;58446;41.490;22.098;2024-02-14T10:24:28;11.43;50.97
70826;SHT31;58446;41.490;22.098;2024-02-14T10:26:54;11.50;50.75
70826;SHT31;58446;41.490;22.098;2024-02-14T10:29:23;11.49;50.40
70826;SHT31;58446;41.490;22.098;2024-02-14T10:31:50;11.52;50.49
70826;SHT31;58446;41.490;22.098;2024-02-14T10:34:16;11.66;50.02
70826;SHT31;58446;41.490;22.098;2024-02-14T10:36:45;11.76;49.84
70826;SHT31;58446;41.490;22.098;2024-02-14T10:39:11;11.70;49.72
70826;SHT31;58446;41.490;22.098;2024-02-14T10:41:37;11.71;49.87
70826;SHT31;58446;41.490;22.098;2024-02-14T10:44:04;11.80;49.21
70826;SHT31;58446;41.490;22.098;2024-02-14T10:46:36;11.77;49.55
70826;SHT31;58446;41.490;22.098;2024-02-14T10:49:04;11.46;49.67
70826;SHT31;58446;41.490;22.098;2024-02-14T10:51:34;11.23;49.84
70826;SHT31;58446;41.490;22.098;2024-02-14T10:54:12;11.14;50.22
70826;SHT31;58446;41.490;22.098;2024-02-14T10:56:40;11.27;49.93
70826;SHT31;58446;41.490;22.098;2024-02-14T10:59:08;11.37;49.25
70826;SHT31;58446;41.490;22.098;2024-02-14T11:01:36;11.36;49.12
70826;SHT31;58446;41.490;22.098;2024-02-14T11:04:03;11.08;49.46
70826;SHT31;58446;41.490;22.098;2024-02-14T11:06:32;11.22;49.13
70826;SHT31;58446;41.490;22.098;2024-02-14T11:09:03;11.29;49.21
70826;SHT31;58446;41.490;22.098;2024-02-14T11:11:33;11.35;48.89
70826;SHT31;58446;41.490;22.098;2024-02-14T11:13:59;11.26;48.70
70826;SHT31;58446;41.490;22.098;2024-02-14T11:16:26;11.26;48.69
70826;SHT31;58446;41.490;22.098;2024-02-14T11:18:54;11.22;48.84
70826;SHT31;58446;41.490;22.098;2024-02-14T11:21:30;11.33;48.69
70826;SHT31;58446;41.490;22.098;2024-02-14T11:23:57;11.44;48.77
70826;SHT31;58446;41.490;22.098;2024-02-14T11:26:45;11.50;48.05
70826;SHT31;58446;41.490;22.098;2024-02-14T11:29:14;11.27;48.22
70826;SHT31;58446;41.490;22.098;2024-02-14T11:31:41;11.33;48.26
70826;SHT31;58446;41.490;22.098;2024-02-14T11:34:10;11.32;47.72
70826;SHT31;58446;41.490;22.098;2024-02-14T11:36:36;11.33;47.71
70826;SHT31;58446;41.490;22.098;2024-02-14T11:39:05;11.47;47.35
70826;SHT31;58446;41.490;22.098;2024-02-14T11:41:34;11.39;47.64
70826;SHT31;58446;41.490;22.098;2024-02-14T11:44:04;11.43;47.45
70826;SHT31;58446;41.490;22.098;2024-02-14T11:46:36;11.47;46.95
70826;SHT31;58446;41.490;22.098;2024-02-14T11:49:03;11.56;46.97
70826;SHT31;58446;41.490;22.098;2024-02-14T11:51:32;11.43;46.74
70826;SHT31;58446;41.490;22.098;2024-02-14T11:53:58;11.33;46.97
70826;SHT31;58446;41.490;22.098;2024-02-14T11:56:32;11.49;47.07
70826;SHT31;58446;41.490;22.098;2024-02-14T11:59:08;11.62;46.51
70826;SHT31;58446;41.490;22.098;2024-02-14T12:01:38;11.67;46.24
70826;SHT31;58446;41.490;22.098;2024-02-14T12:04:08;11.70;46.20
70826;SHT31;58446;41.490;22.098;2024-02-14T12:06:34;11.59;46.78
70826;SHT31;58446;41.490;22.098;2024-02-14T12:09:04;11.59;46.47
70826;SHT31;58446;41.490;22.098;2024-02-14T12:11:36;11.50;46.33
70826;SHT31;58446;41.490;22.098;2024-02-14T12:14:08;11.50;46.41
70826;SHT31;58446;41.490;22.098;2024-02-14T12:16:37;11.60;46.00
70826;SHT31;58446;41.490;22.098;2024-02-14T12:19:06;11.47;45.79
70826;SHT31;58446;41.490;22.098;2024-02-14T12:21:36;11.26;45.83
70826;SHT31;58446;41.490;22.098;2024-02-14T12:24:09;11.30;46.05
70826;SHT31;58446;41.490;22.098;2024-02-14T12:26:36;11.20;46.46
70826;SHT31;58446;41.490;22.098;2024-02-14T12:29:03;11.25;46.54
70826;SHT31;58446;41.490;22.098;2024-02-14T12:31:30;11.18;45.87
70826;SHT31;58446;41.490;22.098;2024-02-14T12:33:58;11.16;45.80
70826;SHT31;58446;41.490;22.098;2024-02-14T12:36:31;11.18;45.80
70826;SHT31;58446;41.490;22.098;2024-02-14T12:39:01;11.16;46.04
70826;SHT31;58446;41.490;22.098;2024-02-14T12:41:28;11.14;46.06
70826;SHT31;58446;41.490;22.098;2024-02-14T12:43:58;11.06;46.06
70826;SHT31;58446;41.490;22.098;2024-02-14T12:46:24;11.12;46.25
70826;SHT31;58446;41.490;22.098;2024-02-14T12:48:49;11.15;46.25
70826;SHT31;58446;41.490;22.098;2024-02-14T12:51:16;11.08;45.89
70826;SHT31;58446;41.490;22.098;2024-02-14T12:53:42;11.09;45.91
70826;SHT31;58446;41.490;22.098;2024-02-14T12:56:08;11.35;45.75
70826;SHT31;58446;41.490;22.098;2024-02-14T12:58:33;11.50;45.64
70826;SHT31;58446;41.490;22.098;2024-02-14T13:00:59;11.66;45.53
70826;SHT31;58446;41.490;22.098;2024-02-14T13:03:26;11.78;44.97
70826;SHT31;58446;41.490;22.098;2024-02-14T13:05:53;11.76;44.90
70826;SHT31;58446;41.490;22.098;2024-02-14T13:08:20;11.76;45.29
70826;SHT31;58446;41.490;22.098;2024-02-14T13:10:45;11.86;45.33
70826;SHT31;58446;41.490;22.098;2024-02-14T13:13:12;11.69;45.10
70826;SHT31;58446;41.490;22.098;2024-02-14T13:15:39;11.60;45.54
70826;SHT31;58446;41.490;22.098;2024-02-14T13:18:06;11.55;45.72
70826;SHT31;58446;41.490;22.098;2024-02-14T13:20:31;11.69;45.77
70826;SHT31;58446;41.490;22.098;2024-02-14T13:22:57;11.76;45.46
70826;SHT31;58446;41.490;22.098;2024-02-14T13:25:23;11.78;45.89
70826;SHT31;58446;41.490;22.098;2024-02-14T13:27:49;11.81;45.64
70826;SHT31;58446;41.490;22.098;2024-02-14T13:30:15;11.76;45.16
70826;SHT31;58446;41.490;22.098;2024-02-14T13:32:41;11.59;45.45
70826;SHT31;58446;41.490;22.098;2024-02-14T13:35:07;11.42;45.78
70826;SHT31;58446;41.490;22.098;2024-02-14T13:37:33;11.37;45.87
70826;SHT31;58446;41.490;22.098;2024-02-14T13:40:00;11.39;45.76
70826;SHT31;58446;41.490;22.098;2024-02-14T13:42:30;11.43;45.64
70826;SHT31;58446;41.490;22.098;2024-02-14T13:44:55;11.47;45.07
70826;SHT31;58446;41.490;22.098;2024-02-14T13:47:21;11.63;44.81
70826;SHT31;58446;41.490;22.098;2024-02-14T13:49:48;11.77;44.77
70826;SHT31;58446;41.490;22.098;2024-02-14T13:52:14;11.80;44.67
70826;SHT31;58446;41.490;22.098;2024-02-14T13:54:41;12.02;44.31
70826;SHT31;58446;41.490;22.098;2024-02-14T13:57:08;12.07;44.25
70826;SHT31;58446;41.490;22.098;2024-02-14T13:59:34;11.91;44.62
70826;SHT31;58446;41.490;22.098;2024-02-14T14:02:06;11.94;44.35
70826;SHT31;58446;41.490;22.098;2024-02-14T14:04:34;11.90;44.31
70826;SHT31;58446;41.490;22.098;2024-02-14T14:07:01;11.78;44.52
70826;SHT31;58446;41.490;22.098;2024-02-14T14:09:29;11.60;44.84
70826;SHT31;58446;41.490;22.098;2024-02-14T14:11:58;11.33;44.58
70826;SHT31;58446;41.490;22.098;2024-02-14T14:14:23;11.20;45.11
70826;SHT31;58446;41.490;22.098;2024-02-14T14:16:52;11.22;45.15
70826;SHT31;58446;41.490;22.098;2024-02-14T14:19:18;11.25;44.84
70826;SHT31;58446;41.490;22.098;2024-02-14T14:21:44;11.23;44.59
70826;SHT31;58446;41.490;22.098;2024-02-14T14:24:10;11.14;44.66
70826;SHT31;58446;41.490;22.098;2024-02-14T14:26:36;11.08;44.37
70826;SHT31;58446;41.490;22.098;2024-02-14T14:29:03;11.09;44.46
70826;SHT31;58446;41.490;22.098;2024-02-14T14:31:29;11.19;44.43
70826;SHT31;58446;41.490;22.098;2024-02-14T14:33:54;11.19;44.28
70826;SHT31;58446;41.490;22.098;2024-02-14T14:36:22;11.20;44.47
70826;SHT31;58446;41.490;22.098;2024-02-14T14:38:48;11.12;44.55
70826;SHT31;58446;41.490;22.098;2024-02-14T14:41:13;11.22;44.71
70826;SHT31;58446;41.490;22.098;2024-02-14T14:43:40;11.16;44.68
70826;SHT31;58446;41.490;22.098;2024-02-14T14:46:05;11.14;45.03
70826;SHT31;58446;41.490;22.098;2024-02-14T14:48:31;11.19;45.25
70826;SHT31;58446;41.490;22.098;2024-02-14T14:50:57;11.32;45.12
70826;SHT31;58446;41.490;22.098;2024-02-14T14:53:22;11.39;44.77
70826;SHT31;58446;41.490;22.098;2024-02-14T14:55:56;11.36;44.97
70826;SHT31;58446;41.490;22.098;2024-02-14T14:58:22;11.29;45.26
70826;SHT31;58446;41.490;22.098;2024-02-14T15:00:52;11.27;45.31
70826;SHT31;58446;41.490;22.098;2024-02-14T15:03:20;11.20;45.57
70826;SHT31;58446;41.490;22.098;2024-02-14T15:05:46;11.33;45.65
70826;SHT31;58446;41.490;22.098;2024-02-14T15:08:13;11.33;45.94
70826;SHT31;58446;41.490;22.098;2024-02-14T15:10:39;11.23;45.82
70826;SHT31;58446;41.490;22.098;2024-02-14T15:13:06;11.20;45.69
70826;SHT31;58446;41.490;22.098;2024-02-14T15:15:35;11.18;45.84